createdAt,value
2024-01-15T00:02:08.959Z,13.32
2024-01-15T00:04:38.427Z,13.55
2024-01-15T00:07:06.447Z,11.95
2024-01-15T00:09:34.129Z,12.45
2024-01-15T00:12:03.659Z,13.18
2024-01-15T00:14:31.362Z,12.95
2024-01-15T00:16:58.960Z,14.35
2024-01-15T00:19:26.602Z,14.32
2024-01-15T00:21:54.293Z,15.38
2024-01-15T00:24:22.056Z,13.75
2024-01-15T00:26:49.772Z,13.90
2024-01-15T00:29:18.986Z,14.52
2024-01-15T00:31:46.638Z,14.55
2024-01-15T00:34:14.448Z,13.75
2024-01-15T00:36:42.439Z,14.70
2024-01-15T00:39:11.912Z,13.95
2024-01-15T00:41:39.735Z,13.52
2024-01-15T00:44:08.760Z,13.38
2024-01-15T00:46:45.375Z,13.13
2024-01-15T00:49:13.290Z,13.63
2024-01-15T00:51:41.392Z,15.93
2024-01-15T00:54:09.172Z,14.93
2024-01-15T00:56:36.933Z,14.73
2024-01-15T00:59:04.533Z,14.52
2024-01-15T01:01:32.205Z,16.42
2024-01-15T01:04:01.344Z,15.20
2024-01-15T01:06:31.311Z,13.90
2024-01-15T01:08:59.505Z,15.77
2024-01-15T01:11:27.060Z,16.20
2024-01-15T01:13:54.623Z,16.38
2024-01-15T01:16:22.193Z,16.27
2024-01-15T01:18:49.897Z,19.80
2024-01-15T01:21:19.075Z,18.30
2024-01-15T01:23:46.713Z,17.67
2024-01-15T01:26:17.311Z,17.48
2024-01-15T01:28:44.882Z,16.83
2024-01-15T01:31:12.581Z,18.23
2024-01-15T01:33:40.853Z,17.52
2024-01-15T01:36:09.736Z,15.43
2024-01-15T01:38:38.821Z,15.35
2024-01-15T01:41:06.522Z,14.70
2024-01-15T01:43:34.091Z,15.18
2024-01-15T01:46:04.085Z,14.20
2024-01-15T01:48:32.399Z,14.07
2024-01-15T01:51:01.592Z,12.98
2024-01-15T01:53:29.575Z,13.68
2024-01-15T01:55:59.454Z,14.05
2024-01-15T01:58:29.797Z,15.38
2024-01-15T02:00:57.609Z,14.40
2024-01-15T02:03:25.320Z,14.50
2024-01-15T02:05:54.061Z,14.05
2024-01-15T02:08:21.676Z,14.35
2024-01-15T02:10:49.294Z,14.45
2024-01-15T02:13:19.465Z,15.10
2024-01-15T02:15:47.155Z,14.60
2024-01-15T02:18:15.041Z,15.48
2024-01-15T02:20:42.734Z,15.13
2024-01-15T02:23:12.658Z,14.93
2024-01-15T02:25:41.854Z,15.55
2024-01-15T02:28:10.850Z,16.83
2024-01-15T02:30:40.157Z,17.02
2024-01-15T02:33:08.161Z,17.30
2024-01-15T02:35:37.561Z,17.70
2024-01-15T02:38:05.561Z,16.35
2024-01-15T02:40:34.587Z,17.45
2024-01-15T02:43:02.212Z,18.35
2024-01-15T02:45:29.830Z,18.85
2024-01-15T02:47:57.572Z,17.67
2024-01-15T02:50:25.256Z,19.55
2024-01-15T02:52:52.847Z,17.92
2024-01-15T02:55:20.429Z,21.00
2024-01-15T02:57:49.590Z,19.90
2024-01-15T03:00:17.529Z,20.05
2024-01-15T03:02:48.797Z,19.45
2024-01-15T03:05:16.867Z,19.77
2024-01-15T03:07:44.650Z,19.27
2024-01-15T03:10:12.238Z,19.88
2024-01-15T03:12:39.936Z,18.50
2024-01-15T03:15:09.308Z,17.75
2024-01-15T03:17:36.986Z,18.20
2024-01-15T03:20:05.079Z,16.70
2024-01-15T03:22:32.936Z,15.75
2024-01-15T03:25:00.616Z,16.90
2024-01-15T03:27:28.366Z,16.48
2024-01-15T03:29:55.985Z,15.45
2024-01-15T03:32:25.140Z,15.60
2024-01-15T03:34:53.633Z,15.18
2024-01-15T03:37:21.688Z,14.82
2024-01-15T03:39:49.467Z,15.00
2024-01-15T03:42:17.251Z,14.93
2024-01-15T03:44:45.241Z,13.65
2024-01-15T03:47:12.864Z,14.38
2024-01-15T03:49:42.135Z,13.35
2024-01-15T03:52:09.852Z,13.50
2024-01-15T03:54:37.481Z,14.30
2024-01-15T03:57:05.432Z,12.48
2024-01-15T03:59:33.053Z,12.30
2024-01-15T04:02:00.641Z,13.70
2024-01-15T04:04:28.544Z,12.63
2024-01-15T04:06:57.676Z,11.68
2024-01-15T04:09:25.384Z,12.85
2024-01-15T04:11:53.009Z,12.45
2024-01-15T04:14:20.627Z,13.77
2024-01-15T04:16:48.238Z,11.70
2024-01-15T04:19:15.933Z,12.63
2024-01-15T04:21:43.682Z,12.98
2024-01-15T04:24:12.934Z,13.68
2024-01-15T04:26:40.632Z,11.73
2024-01-15T04:29:08.271Z,13.13
2024-01-15T04:31:36.087Z,13.23
2024-01-15T04:34:03.864Z,13.05
2024-01-15T04:36:31.639Z,12.25
2024-01-15T04:38:59.609Z,12.50
2024-01-15T04:41:28.912Z,13.10
2024-01-15T04:43:56.483Z,12.90
2024-01-15T04:46:24.143Z,13.07
2024-01-15T04:48:51.878Z,12.48
2024-01-15T04:51:19.562Z,12.20
2024-01-15T04:53:47.179Z,12.23
2024-01-15T04:56:14.776Z,13.75
2024-01-15T04:58:43.752Z,12.27
2024-01-15T05:01:11.827Z,13.45
2024-01-15T05:03:40.479Z,12.70
2024-01-15T05:06:08.572Z,14.80
2024-01-15T05:08:36.226Z,13.55
2024-01-15T05:11:03.846Z,11.80
2024-01-15T05:13:31.569Z,11.98
2024-01-15T05:16:00.825Z,11.95
2024-01-15T05:18:28.605Z,11.65
2024-01-15T05:20:56.257Z,11.60
2024-01-15T05:23:23.849Z,10.27
2024-01-15T05:25:51.623Z,10.43
2024-01-15T05:28:19.313Z,11.50
2024-01-15T05:30:47.029Z,10.38
2024-01-15T05:33:16.222Z,9.20
2024-01-15T05:35:44.180Z,10.23
2024-01-15T05:38:11.866Z,10.07
2024-01-15T05:40:39.392Z,10.32
2024-01-15T05:43:06.979Z,9.35
2024-01-15T05:45:36.571Z,8.93
2024-01-15T05:48:04.367Z,9.30
2024-01-15T05:50:33.418Z,9.77
2024-01-15T05:53:01.054Z,9.15
2024-01-15T05:55:28.690Z,9.60
2024-01-15T05:57:56.336Z,8.43
2024-01-15T06:00:24.126Z,9.57
2024-01-15T06:02:51.789Z,9.65
2024-01-15T06:05:19.622Z,8.30
2024-01-15T06:07:49.015Z,7.97
2024-01-15T06:10:16.686Z,9.13
2024-01-15T06:12:45.171Z,9.23
2024-01-15T06:15:12.884Z,10.23
2024-01-15T06:17:40.591Z,8.77
2024-01-15T06:20:10.229Z,9.35
2024-01-15T06:22:40.275Z,9.00
2024-01-15T06:25:10.063Z,8.40
2024-01-15T06:27:37.700Z,8.35
2024-01-15T06:30:06.539Z,8.13
2024-01-15T06:32:34.258Z,8.52
2024-01-15T06:35:01.918Z,7.60
2024-01-15T06:37:29.522Z,9.13
2024-01-15T06:39:58.125Z,7.95
2024-01-15T06:42:27.159Z,7.68
2024-01-15T06:44:54.829Z,7.50
2024-01-15T06:47:22.458Z,8.20
2024-01-15T06:49:51.949Z,7.82
2024-01-15T06:52:19.645Z,8.40
2024-01-15T06:54:47.292Z,7.78
2024-01-15T06:57:14.951Z,7.82
2024-01-15T06:59:43.990Z,7.35
2024-01-15T07:02:11.769Z,6.55
2024-01-15T07:04:42.821Z,6.80
2024-01-15T07:09:38.827Z,6.53
2024-01-15T07:12:06.622Z,6.25
2024-01-15T07:14:34.213Z,5.65
2024-01-15T07:17:03.165Z,5.78
2024-01-15T07:19:30.868Z,6.40
2024-01-15T07:21:58.602Z,6.32
2024-01-15T07:24:26.267Z,5.55
2024-01-15T07:26:53.898Z,6.57
2024-01-15T07:29:21.489Z,6.07
2024-01-15T07:31:50.419Z,5.50
2024-01-15T07:34:20.077Z,6.40
2024-01-15T07:36:47.892Z,6.00
2024-01-15T07:39:16.046Z,6.00
2024-01-15T07:41:43.715Z,6.00
2024-01-15T07:44:11.310Z,6.22
2024-01-15T07:46:38.919Z,6.40
2024-01-15T07:49:06.900Z,5.65
2024-01-15T07:51:36.015Z,6.22
2024-01-15T07:54:03.622Z,6.72
2024-01-15T07:56:31.260Z,6.65
2024-01-15T07:58:58.875Z,6.28
2024-01-15T08:01:26.539Z,6.68
2024-01-15T08:03:55.930Z,5.82
2024-01-15T08:06:23.830Z,5.72
2024-01-15T08:08:52.957Z,5.95
2024-01-15T08:11:20.546Z,6.00
2024-01-15T08:13:48.124Z,6.28
2024-01-15T08:16:15.999Z,5.28
2024-01-15T08:18:43.988Z,6.07
2024-01-15T08:21:11.766Z,5.10
2024-01-15T08:23:39.612Z,6.30
2024-01-15T08:26:08.522Z,5.75
2024-01-15T08:28:37.791Z,6.78
2024-01-15T08:31:07.163Z,4.15
2024-01-15T08:33:34.895Z,5.97
2024-01-15T08:36:02.596Z,5.43
2024-01-15T08:38:30.181Z,5.20
2024-01-15T08:41:00.203Z,5.45
2024-01-15T08:43:29.188Z,6.13
2024-01-15T08:45:56.843Z,5.93
2024-01-15T08:48:24.526Z,5.35
2024-01-15T08:50:53.291Z,5.60
2024-01-15T08:53:21.116Z,5.18
2024-01-15T08:55:48.780Z,5.40
2024-01-15T08:58:16.462Z,4.93
2024-01-15T09:00:45.557Z,4.75
2024-01-15T09:03:13.327Z,3.92
2024-01-15T09:05:42.062Z,4.30
2024-01-15T09:08:09.674Z,4.22
2024-01-15T09:10:37.320Z,3.70
2024-01-15T09:13:05.923Z,4.20
2024-01-15T09:15:33.653Z,4.03
2024-01-15T09:18:07.172Z,4.20
2024-01-15T09:20:35.905Z,3.85
2024-01-15T09:23:03.737Z,3.92
2024-01-15T09:25:31.388Z,4.15
2024-01-15T09:27:59.298Z,4.57
2024-01-15T09:30:27.070Z,4.35
2024-01-15T09:32:54.812Z,3.80
2024-01-15T09:35:25.322Z,3.28
2024-01-15T09:37:53.275Z,4.72
2024-01-15T09:40:22.774Z,4.25
2024-01-15T09:42:50.849Z,4.35
2024-01-15T09:45:18.554Z,4.18
2024-01-15T09:47:47.122Z,3.97
2024-01-15T09:50:15.185Z,3.85
2024-01-15T09:52:44.530Z,4.30
2024-01-15T09:55:12.999Z,3.55
2024-01-15T09:57:41.760Z,3.75
2024-01-15T10:00:12.129Z,3.60
2024-01-15T10:02:40.045Z,3.45
2024-01-15T10:05:07.825Z,3.47
2024-01-15T10:07:37.291Z,3.60
2024-01-15T10:10:06.813Z,3.97
2024-01-15T10:12:34.638Z,4.28
2024-01-15T10:15:02.425Z,4.00
2024-01-15T10:17:30.361Z,4.15
2024-01-15T10:19:58.223Z,3.83
2024-01-15T10:22:25.800Z,3.90
2024-01-15T10:24:53.702Z,3.50
2024-01-15T10:27:23.077Z,4.05
2024-01-15T10:29:50.706Z,3.50
2024-01-15T10:32:18.319Z,4.00
2024-01-15T10:34:46.075Z,3.53
2024-01-15T10:37:13.778Z,3.88
2024-01-15T10:39:41.407Z,3.42
2024-01-15T10:42:09.539Z,4.07
2024-01-15T10:44:38.536Z,3.63
2024-01-15T10:47:06.413Z,3.92
2024-01-15T10:49:34.511Z,3.92
2024-01-15T10:52:03.696Z,3.28
2024-01-15T10:54:32.213Z,3.40
2024-01-15T10:57:00.087Z,4.20
2024-01-15T10:59:27.760Z,3.38
2024-01-15T11:01:57.692Z,3.78
2024-01-15T11:04:28.255Z,2.95
2024-01-15T11:06:58.015Z,3.78
2024-01-15T11:09:26.178Z,3.85
2024-01-15T11:11:54.945Z,2.75
2024-01-15T11:14:38.057Z,3.00
2024-01-15T11:17:07.503Z,3.92
2024-01-15T11:19:39.037Z,4.25
2024-01-15T11:22:07.304Z,3.40
2024-01-15T11:24:39.479Z,3.22
2024-01-15T11:27:07.346Z,4.47
2024-01-15T11:29:36.143Z,3.50
2024-01-15T11:32:06.182Z,3.65
2024-01-15T11:34:53.123Z,3.90
2024-01-15T11:37:24.508Z,3.70
2024-01-15T11:39:53.453Z,3.53
2024-01-15T11:42:21.687Z,3.75
2024-01-15T11:44:49.302Z,3.60
2024-01-15T11:47:17.135Z,3.53
2024-01-15T11:49:57.400Z,3.38
2024-01-15T11:52:27.225Z,3.20
2024-01-15T11:54:58.445Z,3.97
2024-01-15T11:57:32.714Z,3.20
2024-01-15T12:00:00.505Z,3.20
2024-01-15T12:02:28.155Z,3.95
2024-01-15T12:04:55.785Z,2.83
2024-01-15T12:07:23.506Z,2.85
2024-01-15T12:09:52.729Z,3.55
2024-01-15T12:12:27.410Z,3.25
2024-01-15T12:14:55.121Z,3.45
2024-01-15T12:17:22.904Z,3.63
2024-01-15T12:19:50.752Z,3.88
2024-01-15T12:22:18.386Z,4.55
2024-01-15T12:24:46.006Z,3.67
2024-01-15T12:27:15.169Z,3.42
2024-01-15T12:29:42.756Z,4.22
2024-01-15T12:32:10.365Z,4.05
2024-01-15T12:34:39.697Z,4.15
2024-01-15T12:37:09.196Z,3.58
2024-01-15T12:39:37.135Z,4.30
2024-01-15T12:42:05.012Z,3.95
2024-01-15T12:44:34.083Z,4.28
2024-01-15T12:47:01.724Z,3.75
2024-01-15T12:49:30.407Z,3.92
2024-01-15T12:51:58.939Z,4.50
2024-01-15T12:54:27.059Z,3.95
2024-01-15T12:56:54.858Z,4.28
2024-01-15T12:59:22.496Z,4.47
2024-01-15T13:01:51.536Z,4.85
2024-01-15T13:04:26.047Z,5.07
2024-01-15T13:06:54.448Z,4.57
2024-01-15T13:09:22.320Z,4.65
2024-01-15T13:11:50.009Z,4.03
2024-01-15T13:14:18.324Z,4.40
2024-01-15T13:16:46.009Z,4.30
2024-01-15T13:19:15.228Z,4.85
2024-01-15T13:21:43.032Z,5.30
2024-01-15T13:24:10.969Z,4.82
2024-01-15T13:26:38.685Z,5.25
2024-01-15T13:29:06.357Z,4.78
2024-01-15T13:31:34.312Z,4.88
2024-01-15T13:34:02.161Z,5.60
2024-01-15T13:36:31.263Z,5.40
2024-01-15T13:39:00.047Z,4.78
2024-01-15T13:41:28.445Z,5.15
2024-01-15T13:43:57.078Z,4.57
2024-01-15T13:46:27.520Z,5.35
2024-01-15T13:48:55.271Z,5.35
2024-01-15T13:51:23.972Z,6.75
2024-01-15T13:53:54.029Z,5.22
2024-01-15T13:56:21.804Z,6.07
2024-01-15T13:58:50.757Z,7.40
2024-01-15T14:01:18.866Z,7.63
2024-01-15T14:03:47.135Z,8.25
2024-01-15T14:06:14.839Z,8.45
2024-01-15T14:08:42.431Z,10.45
2024-01-15T14:11:11.436Z,10.13
2024-01-15T14:13:38.986Z,10.07
2024-01-15T14:16:06.717Z,10.65
2024-01-15T14:18:35.182Z,10.13
2024-01-15T14:21:03.126Z,10.10
2024-01-15T14:23:30.706Z,10.73
2024-01-15T14:25:58.542Z,11.68
2024-01-15T14:28:27.751Z,10.93
2024-01-15T14:30:57.169Z,11.35
2024-01-15T14:33:25.131Z,10.80
2024-01-15T14:35:53.141Z,10.93
2024-01-15T14:38:20.783Z,12.23
2024-01-15T14:40:48.462Z,11.55
2024-01-15T14:43:16.061Z,12.35
2024-01-15T14:45:47.118Z,11.30
2024-01-15T14:48:15.145Z,12.55
2024-01-15T14:50:42.825Z,11.50
2024-01-15T14:53:10.538Z,12.35
2024-01-15T14:55:38.119Z,12.32
2024-01-15T14:58:06.057Z,11.63
2024-01-15T15:00:33.836Z,12.73
2024-01-15T15:03:03.610Z,12.75
2024-01-15T15:05:31.590Z,12.88
2024-01-15T15:07:59.642Z,13.55
2024-01-15T15:10:27.897Z,13.27
2024-01-15T15:12:55.599Z,12.85
2024-01-15T15:15:25.106Z,12.32
2024-01-15T15:17:52.909Z,12.93
2024-01-15T15:20:22.317Z,12.85
2024-01-15T15:22:50.326Z,11.63
2024-01-15T15:25:17.953Z,12.15
2024-01-15T15:27:45.583Z,13.02
2024-01-15T15:30:13.744Z,11.90
2024-01-15T15:32:41.323Z,11.90
2024-01-15T15:35:10.905Z,11.93
2024-01-15T15:37:40.074Z,11.02
2024-01-15T15:40:10.000Z,10.20
2024-01-15T15:42:38.054Z,9.95
2024-01-15T15:45:06.240Z,10.07
2024-01-15T15:47:34.425Z,9.80
2024-01-15T15:50:02.721Z,8.95
2024-01-15T15:52:31.259Z,8.80
2024-01-15T15:55:00.655Z,8.63
2024-01-15T15:57:28.756Z,8.38
2024-01-15T15:59:56.356Z,7.80
2024-01-15T16:02:23.978Z,7.82
2024-01-15T16:04:51.712Z,7.72
2024-01-15T16:07:19.398Z,7.30
2024-01-15T16:09:47.045Z,6.75
2024-01-15T16:12:16.319Z,7.32
2024-01-15T16:14:46.379Z,6.63
2024-01-15T16:23:14.808Z,7.32
2024-01-15T16:23:28.480Z,6.70
2024-01-15T16:23:44.122Z,6.15
2024-01-15T16:25:39.665Z,6.28
2024-01-15T16:28:09.494Z,6.60
2024-01-15T16:30:43.218Z,6.47
2024-01-15T16:33:14.136Z,6.22
2024-01-15T16:35:42.269Z,5.55
2024-01-15T16:38:10.146Z,5.68
2024-01-15T16:40:39.542Z,5.88
2024-01-15T16:43:10.036Z,5.35
2024-01-15T16:45:38.181Z,6.07
2024-01-15T16:48:06.307Z,6.22
2024-01-15T16:50:34.125Z,5.25
2024-01-15T16:53:02.164Z,5.88
2024-01-15T16:55:29.934Z,5.70
2024-01-15T16:57:57.871Z,5.93
2024-01-15T17:00:27.820Z,6.78
2024-01-15T17:02:56.136Z,6.13
2024-01-15T17:05:24.139Z,7.32
2024-01-15T17:07:51.808Z,5.45
2024-01-15T17:10:19.574Z,5.82
2024-01-15T17:12:48.880Z,5.57
2024-01-15T17:15:16.574Z,5.93
2024-01-15T17:17:45.711Z,4.80
2024-01-15T17:20:14.809Z,5.25
2024-01-15T17:22:42.497Z,5.68
2024-01-15T17:25:10.394Z,5.47
2024-01-15T17:27:38.079Z,5.38
2024-01-15T17:30:06.244Z,4.85
2024-01-15T17:32:34.039Z,5.00
2024-01-15T17:35:04.939Z,5.03
2024-01-15T17:37:32.559Z,3.45
2024-01-15T17:40:00.416Z,4.07
2024-01-15T17:42:28.086Z,4.53
2024-01-15T17:44:56.093Z,4.25
2024-01-15T17:47:23.744Z,4.00
2024-01-15T17:49:51.380Z,3.70
2024-01-15T17:52:21.519Z,4.00
2024-01-15T17:54:49.994Z,3.53
2024-01-15T17:57:17.607Z,3.58
2024-01-15T17:59:45.216Z,3.50
2024-01-15T18:02:13.047Z,4.13
2024-01-15T18:04:40.645Z,4.43
2024-01-15T18:07:08.605Z,4.13
2024-01-15T18:09:37.595Z,3.95
2024-01-15T18:12:05.594Z,4.22
2024-01-15T18:14:33.648Z,4.78
2024-01-15T18:17:01.347Z,4.43
2024-01-15T18:19:28.943Z,4.03
2024-01-15T18:21:55.619Z,3.92
2024-01-15T18:24:23.206Z,4.40
2024-01-15T18:26:55.014Z,4.05
2024-01-15T18:29:23.332Z,5.15
2024-01-15T18:31:51.381Z,4.70
2024-01-15T18:34:19.008Z,4.93
2024-01-15T18:36:48.053Z,4.28
2024-01-15T18:39:18.142Z,5.38
2024-01-15T18:41:46.057Z,4.72
2024-01-15T18:44:15.428Z,4.68
2024-01-15T18:46:45.044Z,4.68
2024-01-15T18:49:12.770Z,4.85
2024-01-15T18:51:40.480Z,4.82
2024-01-15T18:54:08.063Z,5.25
2024-01-15T18:56:37.170Z,5.10
2024-01-15T18:59:05.172Z,5.13
2024-01-15T19:01:34.401Z,4.82
2024-01-15T19:04:02.592Z,5.00
2024-01-15T19:06:30.381Z,5.03
2024-01-15T19:08:58.043Z,4.40
2024-01-15T19:11:27.182Z,5.20
2024-01-15T19:13:54.921Z,4.93
2024-01-15T19:16:23.955Z,5.15
2024-01-15T19:18:53.323Z,4.75
2024-01-15T19:21:21.363Z,5.47
2024-01-15T19:23:49.493Z,5.28
2024-01-15T19:26:20.514Z,4.88
2024-01-15T19:28:48.690Z,5.80
2024-01-15T19:31:16.262Z,4.60
2024-01-15T19:33:44.317Z,4.80
2024-01-15T19:36:22.072Z,5.65
2024-01-15T19:38:50.158Z,5.28
2024-01-15T19:41:17.850Z,4.80
2024-01-15T19:43:45.588Z,5.75
2024-01-15T19:46:13.333Z,6.50
2024-01-15T19:48:41.342Z,5.88
2024-01-15T19:51:09.195Z,5.80
2024-01-15T19:53:38.475Z,5.82
2024-01-15T19:56:06.516Z,4.88
2024-01-15T19:58:36.857Z,6.60
2024-01-15T20:01:04.756Z,5.95
2024-01-15T20:03:32.425Z,5.68
2024-01-15T20:06:00.434Z,6.22
2024-01-15T20:08:28.164Z,7.18
2024-01-15T20:10:59.759Z,5.30
2024-01-15T20:13:27.569Z,5.20
2024-01-15T20:15:55.329Z,5.72
2024-01-15T20:18:23.123Z,6.38
2024-01-15T20:20:50.975Z,5.80
2024-01-15T20:23:19.072Z,5.72
2024-01-15T20:25:46.714Z,5.80
2024-01-15T20:28:15.786Z,6.45
2024-01-15T20:30:43.343Z,6.90
2024-01-15T20:33:11.054Z,4.95
2024-01-15T20:35:38.783Z,6.22
2024-01-15T20:38:06.577Z,6.45
2024-01-15T20:40:35.700Z,5.95
2024-01-15T20:43:05.636Z,6.13
2024-01-15T20:45:34.567Z,5.72
2024-01-15T20:48:02.404Z,5.70
2024-01-15T20:50:30.099Z,6.70
2024-01-15T20:52:57.784Z,5.57
2024-01-15T20:55:25.399Z,5.75
2024-01-15T20:57:53.075Z,5.78
2024-01-15T21:00:21.654Z,6.80
2024-01-15T21:02:51.446Z,5.88
2024-01-15T21:05:20.191Z,6.18
2024-01-15T21:07:51.008Z,6.28
2024-01-15T21:10:18.636Z,6.35
2024-01-15T21:12:46.256Z,6.50
2024-01-15T21:15:13.828Z,5.97
2024-01-15T21:17:41.615Z,5.90
2024-01-15T21:20:12.365Z,6.65
2024-01-15T21:22:40.195Z,7.00
2024-01-15T21:25:07.878Z,6.90
2024-01-15T21:27:35.508Z,6.13
2024-01-15T21:30:03.161Z,6.22
2024-01-15T21:32:30.833Z,6.93
2024-01-15T21:34:58.537Z,6.70
2024-01-15T21:37:28.288Z,7.13
2024-01-15T21:39:55.878Z,6.47
2024-01-15T21:42:23.480Z,7.05
2024-01-15T21:44:51.080Z,7.05
2024-01-15T21:47:18.775Z,6.90
2024-01-15T21:49:47.002Z,6.40
2024-01-15T21:52:14.542Z,6.95
2024-01-15T21:54:43.508Z,7.30
2024-01-15T21:57:11.127Z,7.00
2024-01-15T21:59:38.781Z,6.47
2024-01-15T22:02:09.742Z,6.38
2024-01-15T22:04:37.924Z,6.77
2024-01-15T22:07:05.833Z,6.30
2024-01-15T22:09:33.832Z,5.72
2024-01-15T22:12:02.887Z,6.60
2024-01-15T22:14:30.525Z,6.32
2024-01-15T22:16:58.162Z,6.18
2024-01-15T22:19:25.912Z,6.68
2024-01-15T22:21:54.330Z,6.82
2024-01-15T22:24:21.904Z,6.47
2024-01-15T22:26:49.969Z,6.00
2024-01-15T22:29:19.009Z,6.70
2024-01-15T22:31:46.605Z,6.38
2024-01-15T22:34:14.762Z,6.75
2024-01-15T22:36:43.141Z,7.18
2024-01-15T22:39:10.778Z,6.07
2024-01-15T22:41:38.468Z,6.85
2024-01-15T22:44:06.306Z,6.65
2024-01-15T22:46:35.428Z,5.60
2024-01-15T22:49:03.200Z,6.43
2024-01-15T22:51:30.865Z,5.38
2024-01-15T22:53:58.498Z,5.88
2024-01-15T22:56:26.161Z,6.00
2024-01-15T22:58:54.129Z,6.30
2024-01-15T23:01:22.419Z,5.72
2024-01-15T23:03:51.451Z,6.15
2024-01-15T23:06:20.070Z,7.20
2024-01-15T23:08:47.711Z,6.93
2024-01-15T23:11:16.082Z,5.78
2024-01-15T23:13:43.798Z,6.25
2024-01-15T23:16:14.342Z,6.05
2024-01-15T23:18:42.458Z,5.75
2024-01-15T23:21:11.579Z,6.00
2024-01-15T23:23:39.461Z,5.55
2024-01-15T23:26:07.246Z,5.75
2024-01-15T23:28:34.861Z,5.80
2024-01-15T23:31:02.700Z,6.38
2024-01-15T23:33:31.017Z,6.85
2024-01-15T23:36:01.808Z,6.22
2024-01-15T23:38:31.117Z,5.70
2024-01-15T23:40:59.746Z,6.95
2024-01-15T23:43:27.451Z,7.57
2024-01-15T23:45:59.760Z,6.40
2024-01-15T23:48:34.199Z,6.70
2024-01-15T23:51:04.153Z,6.13
2024-01-15T23:53:33.554Z,7.25
2024-01-15T23:56:01.224Z,7.13
2024-01-15T23:58:28.887Z,6.47
